Time;durP1;ratioP1;P1;durP2;ratioP2;P2;SDS_P1;SDS_P2;PMS_P1;PMS_P2;Temp;Humidity;BMP_temperature;BMP_pressure;BME280_temperature;BME280_humidity;BME280_pressure;Samples;Min_cycle;Max_cycle;Signal;HPM_P1;HPM_P2
2022/10/19 00:01:30;;;;;;;14.50;6.30;;;;;;;8.68;98.18;102820.00;5100557;28;20063;-60
2022/10/19 00:03:55;;;;;;;18.63;7.32;;;;;;;8.69;97.99;102813.75;5103695;28;20412;-58
2022/10/19 00:06:27;;;;;;;18.35;6.70;;;;;;;8.63;98.89;102814.16;5102231;28;20031;-58
2022/10/19 00:08:58;;;;;;;16.23;7.20;;;;;;;8.62;98.57;102807.19;5103526;28;20047;-60
2022/10/19 00:11:25;;;;;;;16.67;6.57;;;;;;;8.61;98.70;102811.66;5097723;28;20042;-59
2022/10/19 00:13:52;;;;;;;16.80;6.70;;;;;;;8.60;98.20;102809.91;5100961;28;20148;-58
2022/10/19 00:16:18;;;;;;;19.55;7.40;;;;;;;8.53;98.06;102802.50;5102498;28;20043;-59
2022/10/19 00:18:44;;;;;;;17.67;6.93;;;;;;;8.59;98.22;102807.41;5102402;28;20058;-60
2022/10/19 00:21:13;;;;;;;14.65;6.72;;;;;;;8.51;97.86;102804.34;5099310;28;20027;-59
2022/10/19 00:23:38;;;;;;;18.20;7.07;;;;;;;8.51;98.68;102804.34;5104244;28;20055;-57
2022/10/19 00:26:04;;;;;;;17.58;6.75;;;;;;;8.52;98.38;102798.16;5106429;28;20131;-58
2022/10/19 00:28:30;;;;;;;20.08;6.80;;;;;;;8.54;98.58;102798.91;5104681;28;20042;-58
2022/10/19 00:30:55;;;;;;;18.45;6.38;;;;;;;8.50;98.70;102797.38;5096560;28;20108;-60
2022/10/19 00:33:21;;;;;;;14.93;6.22;;;;;;;8.47;98.81;102796.63;5102753;28;20039;-60
2022/10/19 00:35:49;;;;;;;16.50;6.47;;;;;;;8.41;98.97;102789.09;5104985;28;20051;-57
2022/10/19 00:38:16;;;;;;;18.05;6.75;;;;;;;8.42;99.51;102790.78;5106765;28;20051;-61
2022/10/19 00:40:41;;;;;;;14.70;6.78;;;;;;;8.43;100.00;102784.56;5097564;28;20035;-58
2022/10/19 00:43:18;;;;;;;16.13;6.90;;;;;;;8.43;100.00;102787.19;5104524;28;20032;-60
2022/10/19 00:45:44;;;;;;;12.98;7.15;;;;;;;8.43;100.00;102786.34;5101858;28;20647;-59
2022/10/19 00:48:14;;;;;;;16.52;7.20;;;;;;;8.40;100.00;102787.41;5107123;28;20059;-61
2022/10/19 00:50:40;;;;;;;20.25;7.65;;;;;;;8.39;100.00;102798.91;5096237;28;20039;-59
2022/10/19 00:53:06;;;;;;;18.77;7.43;;;;;;;8.38;100.00;102799.84;5107290;28;20031;-57
2022/10/19 00:55:31;;;;;;;17.98;6.97;;;;;;;8.34;100.00;102798.38;5104553;28;20032;-59
2022/10/19 00:57:57;;;;;;;16.83;7.18;;;;;;;8.35;100.00;102800.91;5106717;28;20040;-59
2022/10/19 01:00:22;;;;;;;15.13;7.70;;;;;;;8.38;100.00;102799.84;5097196;28;20088;-61
2022/10/19 01:02:47;;;;;;;14.23;6.57;;;;;;;8.35;100.00;102797.44;5105150;28;20059;-59
2022/10/19 01:05:14;;;;;;;14.40;7.15;;;;;;;8.29;100.00;102808.38;5106490;28;20035;-61
2022/10/19 01:07:40;;;;;;;17.52;7.28;;;;;;;8.30;100.00;102802.16;5106423;28;20027;-60
2022/10/19 01:10:06;;;;;;;18.10;7.30;;;;;;;8.27;100.00;102802.34;5104705;28;20530;-61
2022/10/19 01:12:56;;;;;;;16.42;7.50;;;;;;;8.30;100.00;102799.50;5105785;28;20027;-58
2022/10/19 01:15:54;;;;;;;19.50;7.78;;;;;;;8.26;100.00;102790.94;5099661;28;20035;-58
2022/10/19 01:18:42;;;;;;;20.60;8.25;;;;;;;8.20;100.00;102796.59;5106882;28;20032;-57
2022/10/19 01:21:27;;;;;;;13.82;7.10;;;;;;;8.25;100.00;102793.66;5103658;28;20036;-58
2022/10/19 01:24:14;;;;;;;18.77;7.88;;;;;;;8.17;100.00;102800.28;5104010;28;20043;-59
2022/10/19 01:27:00;;;;;;;16.80;7.85;;;;;;;8.14;100.00;102803.13;5094167;28;20453;-58
2022/10/19 01:29:49;;;;;;;17.30;8.00;;;;;;;8.18;100.00;102794.06;5100471;28;20043;-59
2022/10/19 01:32:27;;;;;;;17.63;8.30;;;;;;;8.12;100.00;102794.44;5098394;28;20051;-59
2022/10/19 01:34:58;;;;;;;16.73;7.93;;;;;;;8.08;100.00;102787.66;5092925;28;20047;-58
2022/10/19 01:37:39;;;;;;;16.70;8.20;;;;;;;8.11;100.00;102782.19;5100762;28;20059;-58
2022/10/19 01:40:20;;;;;;;17.27;8.45;;;;;;;8.05;100.00;102782.56;5103654;28;20035;-57
2022/10/19 01:42:58;;;;;;;16.10;8.13;;;;;;;8.03;100.00;102787.09;5105171;28;20032;-57
2022/10/19 01:45:35;;;;;;;19.33;8.57;;;;;;;8.03;100.00;102795.00;5097294;28;20074;-60
2022/10/19 01:48:09;;;;;;;17.80;8.68;;;;;;;8.04;100.00;102794.09;5106604;28;20075;-57
2022/10/19 01:50:47;;;;;;;17.88;8.68;;;;;;;7.97;100.00;102779.53;5100116;28;20473;-58
2022/10/19 01:53:16;;;;;;;20.48;8.07;;;;;;;7.92;100.00;102785.97;5100320;28;20554;-59
2022/10/19 01:55:47;;;;;;;18.25;8.23;;;;;;;7.99;100.00;102793.53;5105582;28;20036;-58
2022/10/19 01:58:16;;;;;;;17.77;8.00;;;;;;;7.94;100.00;102789.38;5104455;28;20035;-58
2022/10/19 02:00:45;;;;;;;14.10;8.10;;;;;;;7.96;100.00;102783.13;5102215;28;20063;-61
2022/10/19 02:03:11;;;;;;;19.73;8.10;;;;;;;7.93;100.00;102777.13;5104924;28;20066;-57
2022/10/19 02:05:39;;;;;;;14.15;8.07;;;;;;;7.94;100.00;102775.28;5104411;28;20042;-59
2022/10/19 02:08:09;;;;;;;18.35;7.93;;;;;;;7.95;100.00;102766.44;5107094;28;20027;-57
2022/10/19 02:10:38;;;;;;;17.48;8.60;;;;;;;7.89;100.00;102762.38;5103953;28;20074;-57
2022/10/19 02:13:06;;;;;;;18.80;8.52;;;;;;;7.91;100.00;102757.00;5098213;28;20051;-58
2022/10/19 02:15:37;;;;;;;19.75;8.70;;;;;;;7.90;100.00;102753.50;5098852;28;20036;-57
2022/10/19 02:18:05;;;;;;;16.65;8.50;;;;;;;7.90;100.00;102753.50;5100737;28;20038;-59
2022/10/19 02:20:31;;;;;;;16.75;8.25;;;;;;;7.90;100.00;102756.16;5096763;28;20031;-60
2022/10/19 02:22:56;;;;;;;17.48;8.52;;;;;;;7.84;100.00;102745.97;5103200;28;20371;-60
2022/10/19 02:25:23;;;;;;;15.80;8.50;;;;;;;7.85;100.00;102746.84;5099934;28;20612;-59
2022/10/19 02:27:48;;;;;;;19.52;8.52;;;;;;;7.84;100.00;102745.16;5095695;28;20397;-57
2022/10/19 02:30:16;;;;;;;19.75;8.57;;;;;;;7.82;100.00;102739.94;5102141;28;20031;-58
2022/10/19 02:32:42;;;;;;;19.85;8.50;;;;;;;7.76;100.00;102737.69;5103074;28;20040;-61
2022/10/19 02:35:10;;;;;;;20.08;8.93;;;;;;;7.76;100.00;102735.06;5105286;28;20032;-58
2022/10/19 02:37:36;;;;;;;17.65;8.85;;;;;;;7.76;100.00;102740.34;5112765;28;20058;-57
2022/10/19 02:40:02;;;;;;;13.68;7.88;;;;;;;7.73;100.00;102735.22;5110252;28;20019;-57
2022/10/19 02:42:34;;;;;;;18.35;8.10;;;;;;;7.73;100.00;102725.53;5106404;28;20036;-58
2022/10/19 02:45:05;;;;;;;17.10;8.13;;;;;;;7.67;100.00;102725.91;5111144;28;20027;-58
2022/10/19 02:47:35;;;;;;;17.52;8.02;;;;;;;7.66;100.00;102721.56;5110624;28;20027;-58
2022/10/19 02:50:05;;;;;;;15.63;7.93;;;;;;;7.64;100.00;102721.66;5108429;28;20434;-57
2022/10/19 02:52:30;;;;;;;15.57;8.20;;;;;;;7.61;100.00;102727.13;5112606;28;20032;-58
2022/10/19 02:54:55;;;;;;;13.95;8.18;;;;;;;7.56;100.00;102723.94;5111098;28;20042;-56
2022/10/19 02:57:24;;;;;;;20.08;8.13;;;;;;;7.52;100.00;102728.56;5103739;28;20032;-58
2022/10/19 02:59:50;;;;;;;17.80;7.65;;;;;;;7.51;100.00;102732.13;5109616;28;20027;-58
2022/10/19 03:02:15;;;;;;;14.52;8.07;;;;;;;7.48;100.00;102726.19;5105050;28;20133;-59
2022/10/19 03:04:43;;;;;;;14.27;7.43;;;;;;;7.50;100.00;102724.31;5111161;28;20033;-59
2022/10/19 03:07:09;;;;;;;16.30;8.13;;;;;;;7.45;100.00;102721.13;5112300;28;20031;-57
2022/10/19 03:09:34;;;;;;;13.90;8.13;;;;;;;7.43;100.00;102717.69;5110612;28;20055;-57
2022/10/19 03:12:00;;;;;;;12.77;7.57;;;;;;;7.45;100.00;102715.84;5104284;28;20068;-57
2022/10/19 03:14:25;;;;;;;15.90;7.70;;;;;;;7.41;100.00;102725.75;5108385;28;20030;-57
2022/10/19 03:16:50;;;;;;;14.75;7.57;;;;;;;7.40;100.00;102727.50;5112372;28;20641;-58
2022/10/19 03:19:15;;;;;;;13.32;7.57;;;;;;;7.42;100.00;102722.16;5105618;28;20084;-57
2022/10/19 03:21:41;;;;;;;15.57;7.95;;;;;;;7.42;100.00;102731.84;5106883;28;20032;-58
2022/10/19 03:24:06;;;;;;;19.48;7.90;;;;;;;7.36;100.00;102736.56;5103661;28;20132;-60
2022/10/19 03:26:31;;;;;;;14.27;7.55;;;;;;;7.37;100.00;102725.09;5108875;28;20035;-57
2022/10/19 03:28:56;;;;;;;14.95;7.47;;;;;;;7.32;100.00;102729.78;5110671;28;20038;-58
2022/10/19 03:31:22;;;;;;;15.15;7.60;;;;;;;7.29;100.00;102722.03;5107279;28;20023;-57
2022/10/19 03:33:47;;;;;;;12.20;7.53;;;;;;;7.32;100.00;102724.50;5107930;28;20032;-59
2022/10/19 03:36:18;;;;;;;17.65;7.63;;;;;;;7.29;100.00;102724.69;5109716;28;20143;-57
2022/10/19 03:38:44;;;;;;;17.15;7.60;;;;;;;7.27;100.00;102721.28;5099007;28;20086;-58
2022/10/19 03:41:09;;;;;;;17.15;7.32;;;;;;;7.24;100.00;102721.47;5102737;28;20032;-58
2022/10/19 03:43:35;;;;;;;15.88;7.60;;;;;;;7.26;100.00;102722.25;5111575;28;20654;-57
2022/10/19 03:46:00;;;;;;;15.52;7.38;;;;;;;7.23;100.00;102722.41;5106959;28;20104;-58
2022/10/19 03:48:25;;;;;;;14.65;7.50;;;;;;;7.21;100.00;102719.03;5111010;28;20055;-57
2022/10/19 03:51:08;;;;;;;15.70;7.53;;;;;;;7.24;100.00;102719.69;5101670;28;20032;-57
2022/10/19 03:53:34;;;;;;;13.40;7.07;;;;;;;7.22;100.00;102731.28;5098259;28;20055;-57
2022/10/19 03:56:09;;;;;;;15.02;7.47;;;;;;;7.14;100.00;102723.81;5112379;28;20149;-57
2022/10/19 03:58:36;;;;;;;14.82;7.32;;;;;;;7.12;100.00;102731.81;5111399;28;20024;-58
2022/10/19 04:01:07;;;;;;;19.30;7.22;;;;;;;7.16;100.00;102734.28;5106166;28;20020;-57
2022/10/19 04:03:32;;;;;;;16.42;7.75;;;;;;;7.08;100.00;102740.00;5110479;28;20110;-57
2022/10/19 04:06:02;;;;;;;14.50;7.60;;;;;;;7.02;100.00;102741.25;5106646;28;20107;-57
2022/10/19 04:08:28;;;;;;;16.13;7.63;;;;;;;7.02;100.00;102741.25;5110653;28;20047;-59
2022/10/19 04:11:07;;;;;;;15.93;7.97;;;;;;;7.04;100.00;102736.72;5101444;28;20032;-58
2022/10/19 04:13:33;;;;;;;14.57;7.22;;;;;;;7.00;100.00;102740.47;5108157;28;20038;-59
2022/10/19 04:15:58;;;;;;;16.75;7.68;;;;;;;6.98;100.00;102731.81;5106177;28;20079;-59
2022/10/19 04:18:23;;;;;;;11.65;7.38;;;;;;;6.96;100.00;102725.78;5112518;28;20027;-58
2022/10/19 04:20:58;;;;;;;17.63;7.55;;;;;;;6.97;100.00;102727.47;5113382;28;20356;-58
2022/10/19 04:23:26;;;;;;;15.35;7.25;;;;;;;6.95;100.00;102719.63;5100470;28;20031;-58
2022/10/19 04:25:51;;;;;;;13.68;7.53;;;;;;;6.94;100.00;102725.84;5114435;28;20023;-58
2022/10/19 04:28:17;;;;;;;13.75;7.90;;;;;;;6.96;100.00;102721.34;5113198;28;20943;-58
2022/10/19 04:30:42;;;;;;;16.70;7.75;;;;;;;6.95;100.00;102724.06;5113002;28;20031;-59
2022/10/19 04:33:07;;;;;;;15.60;7.97;;;;;;;6.92;100.00;102714.56;5109564;28;20291;-58
2022/10/19 04:35:32;;;;;;;19.55;8.00;;;;;;;6.93;100.00;102720.66;5104497;28;20032;-58
2022/10/19 04:37:58;;;;;;;18.85;7.80;;;;;;;6.91;100.00;102717.28;5110271;28;20045;-58
2022/10/19 04:40:24;;;;;;;17.45;8.07;;;;;;;6.89;100.00;102705.97;5108293;27;20028;-59
2022/10/19 04:42:49;;;;;;;16.08;8.00;;;;;;;6.89;100.00;102713.88;5108589;28;20031;-57
2022/10/19 04:45:14;;;;;;;13.23;7.85;;;;;;;6.88;100.00;102706.91;5111911;28;20034;-57
2022/10/19 04:47:40;;;;;;;13.90;8.00;;;;;;;6.91;100.00;102719.91;5110442;28;20319;-58
2022/10/19 04:50:05;;;;;;;15.45;7.55;;;;;;;6.85;100.00;102719.34;5107835;28;20047;-57
2022/10/19 04:52:30;;;;;;;16.38;7.85;;;;;;;6.83;100.00;102710.69;5111510;28;20031;-60
2022/10/19 04:54:55;;;;;;;14.27;7.88;;;;;;;6.83;100.00;102715.94;5111908;28;20440;-60
2022/10/19 04:57:21;;;;;;;16.65;8.05;;;;;;;6.83;100.00;102720.38;5112364;28;20023;-57
2022/10/19 04:59:46;;;;;;;13.48;7.88;;;;;;;6.80;100.00;102721.41;5112221;28;20432;-60
2022/10/19 05:02:11;;;;;;;17.52;7.75;;;;;;;6.79;100.00;102714.44;5112845;28;20035;-59
2022/10/19 05:04:37;;;;;;;15.93;8.02;;;;;;;6.78;100.00;102722.41;5111031;28;20157;-57
2022/10/19 05:07:02;;;;;;;19.13;8.63;;;;;;;6.75;100.00;102718.16;5113259;28;20027;-57
2022/10/19 05:09:27;;;;;;;18.05;8.20;;;;;;;6.72;100.00;102707.81;5112614;27;20123;-59
2022/10/19 05:11:52;;;;;;;13.50;8.07;;;;;;;6.73;100.00;102720.91;5111355;28;20648;-57
2022/10/19 05:14:18;;;;;;;15.35;8.23;;;;;;;6.67;100.00;102715.16;5103578;28;20065;-58
2022/10/19 05:16:43;;;;;;;19.17;8.48;;;;;;;6.69;100.00;102715.91;5105997;28;20553;-58
2022/10/19 05:19:12;;;;;;;19.23;8.38;;;;;;;6.66;100.00;102708.19;5113726;28;20027;-59
2022/10/19 05:21:38;;;;;;;16.67;9.45;;;;;;;6.64;100.00;102712.66;5106207;28;20024;-58
2022/10/19 05:24:03;;;;;;;20.80;9.32;;;;;;;6.65;100.00;102711.75;5113115;28;20019;-58
2022/10/19 05:26:29;;;;;;;19.38;9.30;;;;;;;6.63;100.00;102705.72;5112722;28;20364;-58
2022/10/19 05:28:58;;;;;;;17.40;9.15;;;;;;;6.61;100.00;102708.44;5103674;28;20028;-58
2022/10/19 05:31:26;;;;;;;15.82;8.73;;;;;;;6.58;100.00;102700.72;5102583;28;20034;-59
2022/10/19 05:33:51;;;;;;;20.52;9.30;;;;;;;6.57;100.00;102688.47;5103903;28;20074;-57
2022/10/19 05:36:28;;;;;;;17.92;9.70;;;;;;;6.54;100.00;102684.22;5105216;28;20084;-58
2022/10/19 05:38:56;;;;;;;22.63;10.00;;;;;;;6.57;100.00;102688.47;5100864;28;20050;-58
2022/10/19 05:41:22;;;;;;;16.85;9.82;;;;;;;6.59;100.00;102690.09;5104024;28;20502;-58
2022/10/19 05:43:55;;;;;;;19.40;9.93;;;;;;;6.56;100.00;102692.88;5104688;28;20110;-59
2022/10/19 05:46:21;;;;;;;22.95;10.45;;;;;;;6.54;100.00;102686.88;5101192;28;20027;-58
2022/10/19 05:48:46;;;;;;;16.88;9.38;;;;;;;6.56;100.00;102689.41;5104808;28;20038;-59
2022/10/19 05:51:14;;;;;;;16.92;10.18;;;;;;;6.51;100.00;102689.66;5099003;28;20114;-59
2022/10/19 05:53:39;;;;;;;19.63;10.18;;;;;;;6.51;100.00;102694.09;5105525;28;20038;-59
2022/10/19 05:56:07;;;;;;;20.27;10.15;;;;;;;6.51;100.00;102689.66;5101540;28;20028;-58
2022/10/19 05:58:33;;;;;;;19.52;10.43;;;;;;;6.50;100.00;102687.97;5103763;28;20390;-59
2022/10/19 06:00:59;;;;;;;19.80;10.40;;;;;;;6.49;100.00;102691.53;5101603;28;20035;-59
2022/10/19 06:03:25;;;;;;;19.08;9.93;;;;;;;6.51;100.00;102694.09;5102993;28;20039;-58
2022/10/19 06:05:52;;;;;;;18.92;10.27;;;;;;;6.49;100.00;102685.41;5102781;28;20368;-58
2022/10/19 06:08:18;;;;;;;22.27;11.23;;;;;;;6.46;100.00;102683.81;5103500;28;20039;-59
2022/10/19 06:10:44;;;;;;;21.25;10.60;;;;;;;6.44;100.00;102680.41;5106248;28;20035;-61
2022/10/19 06:13:10;;;;;;;18.73;10.30;;;;;;;6.44;100.00;102680.41;5102141;28;20371;-58
2022/10/19 06:15:38;;;;;;;20.67;11.55;;;;;;;6.44;100.00;102680.41;5103886;28;20028;-58
2022/10/19 06:18:05;;;;;;;22.10;11.57;;;;;;;6.43;100.00;102670.81;5099057;28;20356;-58
2022/10/19 06:20:36;;;;;;;23.83;11.55;;;;;;;6.39;100.00;102670.16;5100081;28;20035;-58
2022/10/19 06:23:02;;;;;;;22.08;11.27;;;;;;;6.43;100.00;102676.09;5100668;28;20120;-58
2022/10/19 06:25:29;;;;;;;22.08;11.32;;;;;;;6.43;100.00;102670.81;5101977;28;20107;-59
2022/10/19 06:27:54;;;;;;;20.55;11.95;;;;;;;6.41;100.00;102672.72;5104355;28;20031;-58
2022/10/19 06:30:20;;;;;;;25.85;12.25;;;;;;;6.40;100.00;102676.25;5099107;28;20046;-59
2022/10/19 06:32:45;;;;;;;25.15;11.82;;;;;;;6.44;100.00;102683.06;5104789;28;20028;-58
2022/10/19 06:35:10;;;;;;;20.08;11.60;;;;;;;6.43;100.00;102676.91;5100984;27;20427;-60
2022/10/19 06:37:35;;;;;;;25.20;12.38;;;;;;;6.45;100.00;102684.75;5103354;28;20170;-59
2022/10/19 06:40:01;;;;;;;25.20;12.73;;;;;;;6.45;100.00;102685.59;5099442;28;20039;-58
2022/10/19 06:42:26;;;;;;;21.05;12.02;;;;;;;6.46;100.00;102679.41;5102957;28;20067;-58
2022/10/19 06:44:51;;;;;;;20.85;11.82;;;;;;;6.51;100.00;102684.41;5102265;28;20042;-58
2022/10/19 06:47:16;;;;;;;23.98;12.10;;;;;;;6.53;100.00;102693.09;5103261;28;20066;-59
2022/10/19 06:49:43;;;;;;;23.08;11.85;;;;;;;6.55;100.00;102685.06;5101700;28;20517;-60
2022/10/19 06:52:08;;;;;;;20.73;11.98;;;;;;;6.59;100.00;102686.59;5098215;28;20042;-58
2022/10/19 06:54:33;;;;;;;19.63;11.38;;;;;;;6.63;100.00;102682.84;5105028;28;20027;-59
2022/10/19 06:56:59;;;;;;;19.15;11.77;;;;;;;6.66;100.00;102684.44;5107300;28;20051;-59
2022/10/19 06:59:24;;;;;;;22.85;11.80;;;;;;;6.69;100.00;102681.63;5109422;28;20027;-58
2022/10/19 07:01:49;;;;;;;22.00;12.05;;;;;;;6.69;100.00;102682.47;5097563;28;20537;-58
2022/10/19 07:04:15;;;;;;;19.73;11.50;;;;;;;6.70;100.00;102684.19;5110301;28;20024;-59
2022/10/19 07:06:40;;;;;;;21.98;11.48;;;;;;;6.72;100.00;102682.28;5111248;28;20027;-59
2022/10/19 07:09:05;;;;;;;23.55;11.73;;;;;;;6.74;100.00;102682.19;5111931;28;20504;-58
2022/10/19 07:11:31;;;;;;;24.02;11.88;;;;;;;6.79;100.00;102682.78;5100799;28;20031;-57
2022/10/19 07:13:56;;;;;;;22.00;11.80;;;;;;;6.79;100.00;102677.50;5109958;28;20023;-59
2022/10/19 07:16:22;;;;;;;22.67;11.93;;;;;;;6.85;100.00;102694.75;5109833;28;20036;-58
2022/10/19 07:18:49;;;;;;;22.50;12.02;;;;;;;6.88;100.00;102686.66;5109025;28;20070;-60
2022/10/19 07:21:15;;;;;;;19.13;11.85;;;;;;;6.95;100.00;102695.03;5103023;28;20043;-60
2022/10/19 07:23:42;;;;;;;22.85;11.80;;;;;;;7.00;100.00;102692.97;5106931;28;20039;-59
2022/10/19 07:26:17;;;;;;;20.75;11.95;;;;;;;7.06;100.00;102692.59;5107412;28;20089;-59
2022/10/19 07:28:44;;;;;;;24.63;12.10;;;;;;;7.09;100.00;102686.31;5105421;28;20115;-59
2022/10/19 07:31:12;;;;;;;21.48;12.48;;;;;;;7.11;100.00;102692.34;5105082;28;20088;-59
2022/10/19 07:33:38;;;;;;;20.17;11.75;;;;;;;7.12;100.00;102686.97;5103937;28;20418;-61
2022/10/19 07:36:07;;;;;;;22.27;11.98;;;;;;;7.13;100.00;102680.78;5103343;28;20024;-62
2022/10/19 07:38:33;;;;;;;20.45;11.90;;;;;;;7.19;100.00;102684.81;5097720;28;20052;-58
2022/10/19 07:41:06;;;;;;;19.45;12.00;;;;;;;7.22;100.00;102679.38;5100777;28;20035;-58
2022/10/19 07:43:32;;;;;;;22.15;12.50;;;;;;;7.27;100.00;102679.06;5108057;28;20039;-58
2022/10/19 07:46:03;;;;;;;22.23;12.43;;;;;;;7.32;100.00;102684.91;5106092;28;20092;-58
2022/10/19 07:48:28;;;;;;;22.33;12.75;;;;;;;7.36;100.00;102675.84;5107707;28;20035;-58
2022/10/19 07:50:54;;;;;;;19.52;11.68;;;;;;;7.42;100.00;102674.63;5104553;28;20027;-58
2022/10/19 07:53:20;;;;;;;21.00;12.30;;;;;;;7.47;100.00;102666.44;5106164;28;20535;-59
2022/10/19 07:55:46;;;;;;;19.83;12.05;;;;;;;7.52;100.00;102677.56;5103736;28;20028;-58
2022/10/19 07:58:11;;;;;;;17.85;11.60;;;;;;;7.57;100.00;102669.34;5108508;28;20088;-59
2022/10/19 08:00:36;;;;;;;21.77;11.98;;;;;;;7.63;100.00;102667.16;5103709;28;20028;-59
2022/10/19 08:03:01;;;;;;;22.70;12.45;;;;;;;7.69;100.00;102667.72;5107269;28;20110;-58
2022/10/19 08:05:27;;;;;;;23.02;13.60;;;;;;;7.76;100.00;102661.09;5096288;28;20032;-59
2022/10/19 08:07:52;;;;;;;23.65;13.23;;;;;;;7.80;100.00;102662.63;5102969;28;20032;-59
2022/10/19 08:10:17;;;;;;;22.00;12.60;;;;;;;7.86;100.00;102664.88;5108527;28;20043;-58
2022/10/19 08:12:42;;;;;;;24.85;12.73;;;;;;;7.92;100.00;102667.09;5108173;28;20039;-59
2022/10/19 08:15:08;;;;;;;22.25;12.95;;;;;;;8.01;100.00;102675.38;5106892;28;20023;-58
2022/10/19 08:17:35;;;;;;;20.98;12.15;;;;;;;8.07;100.00;102672.34;5108126;28;20047;-59
2022/10/19 08:20:01;;;;;;;21.58;11.63;;;;;;;8.14;100.00;102665.69;5103012;28;20065;-58
2022/10/19 08:22:26;;;;;;;21.52;11.52;;;;;;;8.20;100.00;102665.28;5107808;28;20035;-58
2022/10/19 08:24:51;;;;;;;21.80;12.23;;;;;;;8.27;100.00;102655.19;5107882;28;20100;-58
2022/10/19 08:27:17;;;;;;;25.25;12.80;;;;;;;8.32;100.00;102653.09;5101660;28;20046;-59
2022/10/19 08:29:42;;;;;;;21.95;11.38;;;;;;;8.39;100.00;102636.81;5101249;28;20027;-59
2022/10/19 08:32:07;;;;;;;24.35;11.50;;;;;;;8.47;100.00;102635.34;5093877;28;20036;-59
2022/10/19 08:34:33;;;;;;;21.90;11.00;;;;;;;8.54;100.00;102634.97;5107656;28;20034;-58
2022/10/19 08:37:00;;;;;;;19.60;10.68;;;;;;;8.55;100.00;102626.94;5109481;28;20108;-58
2022/10/19 08:39:26;;;;;;;20.70;10.75;;;;;;;8.65;100.00;102629.78;5109333;28;20035;-59
2022/10/19 08:42:13;;;;;;;21.08;10.45;;;;;;;8.74;100.00;102626.50;5101229;28;20031;-59
2022/10/19 08:44:57;;;;;;;17.63;10.10;;;;;;;8.82;100.00;102622.47;5105494;28;20035;-59
2022/10/19 08:48:03;;;;;;;20.05;10.18;;;;;;;8.86;100.00;102621.31;5109748;28;20039;-62
2022/10/19 08:50:36;;;;;;;19.67;8.85;;;;;;;8.93;100.00;102625.22;5105588;28;20374;-58
2022/10/19 08:53:29;;;;;;;23.75;9.75;;;;;;;9.02;100.00;102621.97;5110488;28;20467;-58
2022/10/19 08:56:09;;;;;;;19.63;9.32;;;;;;;9.11;100.00;102622.25;5108882;28;20063;-60
2022/10/19 08:58:39;;;;;;;18.90;9.48;;;;;;;9.19;100.00;102619.94;5104593;28;20077;-60
2022/10/19 09:01:19;;;;;;;18.33;9.23;;;;;;;9.28;100.00;102621.09;5104884;28;20390;-60
2022/10/19 09:03:50;;;;;;;20.38;8.90;;;;;;;9.36;100.00;102626.69;5106872;28;20042;-59
2022/10/19 09:06:24;;;;;;;23.30;9.27;;;;;;;9.42;100.00;102617.44;5102258;27;20091;-60
2022/10/19 09:08:52;;;;;;;18.52;8.25;;;;;;;9.54;100.00;102618.38;5101659;28;20042;-59
2022/10/19 09:11:24;;;;;;;23.25;8.77;;;;;;;9.59;100.00;102610.09;5098088;28;20028;-63
2022/10/19 09:13:59;;;;;;;23.55;8.75;;;;;;;9.59;100.00;102602.13;5102288;28;20024;-59
2022/10/19 09:16:26;;;;;;;21.70;8.85;;;;;;;9.76;100.00;102611.50;5100463;28;20032;-61
2022/10/19 09:18:51;;;;;;;19.65;8.10;;;;;;;9.79;100.00;102609.50;5102686;28;20031;-60
2022/10/19 09:21:42;;;;;;;22.70;7.65;;;;;;;9.87;100.00;102618.69;5098564;28;20441;-61
2022/10/19 09:24:25;;;;;;;20.67;7.68;;;;;;;9.92;100.00;102621.84;5103474;28;20035;-59
2022/10/19 09:26:54;;;;;;;18.13;6.97;;;;;;;9.96;100.00;102624.13;5099619;28;20028;-59
2022/10/19 09:29:31;;;;;;;18.52;7.05;;;;;;;10.04;100.00;102626.22;5101985;28;20100;-59
2022/10/19 09:32:00;;;;;;;19.60;7.25;;;;;;;10.08;100.00;102616.25;5099353;28;20036;-60
2022/10/19 09:34:39;;;;;;;16.65;6.90;;;;;;;10.17;100.00;102617.38;5101521;28;20031;-59
2022/10/19 09:37:04;;;;;;;16.42;6.80;;;;;;;10.24;100.00;102615.94;5098850;27;20105;-59
2022/10/19 09:39:30;;;;;;;19.10;6.53;;;;;;;10.32;100.00;102613.53;5100072;28;20478;-59
2022/10/19 09:41:58;;;;;;;15.82;6.00;;;;;;;10.34;99.77;102608.97;5097985;28;20042;-60
2022/10/19 09:44:25;;;;;;;16.30;6.15;;;;;;;10.41;99.14;102605.88;5099783;28;20023;-60
2022/10/19 09:47:16;;;;;;;12.55;5.88;;;;;;;10.49;98.24;102604.34;5104428;27;20038;-60
2022/10/19 09:49:44;;;;;;;13.85;6.03;;;;;;;10.53;98.50;102610.25;5098507;28;20422;-61
2022/10/19 09:52:30;;;;;;;13.43;5.75;;;;;;;10.66;96.97;102598.69;5105878;28;20054;-60
2022/10/19 09:55:02;;;;;;;16.30;5.70;;;;;;;10.67;94.66;102593.28;5095485;28;20076;-61
2022/10/19 09:57:27;;;;;;;12.73;5.70;;;;;;;10.72;95.03;102579.66;5102022;27;20039;-59
2022/10/19 09:59:54;;;;;;;15.18;5.72;;;;;;;10.80;96.34;102579.88;5101739;27;20031;-60
2022/10/19 10:02:27;;;;;;;15.82;5.85;;;;;;;10.85;95.64;102572.41;5101349;28;20061;-59
2022/10/19 10:05:03;;;;;;;12.50;5.40;;;;;;;10.93;94.93;102573.63;5097382;28;20032;-59
2022/10/19 10:07:35;;;;;;;12.77;5.60;;;;;;;10.96;93.40;102570.72;5106755;28;20092;-60
2022/10/19 10:10:01;;;;;;;15.98;5.55;;;;;;;11.01;93.29;102576.53;5105524;28;20039;-59
2022/10/19 10:12:27;;;;;;;18.23;5.82;;;;;;;11.05;94.55;102572.66;5104374;27;20467;-59
2022/10/19 10:14:55;;;;;;;14.30;5.30;;;;;;;11.03;93.39;102580.75;5103771;27;20118;-59
2022/10/19 10:17:25;;;;;;;17.10;5.40;;;;;;;11.03;93.17;102574.59;5101772;28;20066;-59
2022/10/19 10:20:29;;;;;;;14.23;5.50;;;;;;;11.09;93.71;102574.09;5096579;28;20510;-58
2022/10/19 10:22:58;;;;;;;15.40;5.03;;;;;;;11.12;91.61;102581.84;5097977;28;20042;-58
2022/10/19 10:25:30;;;;;;;15.98;5.75;;;;;;;11.14;90.89;102582.53;5109832;28;20510;-58
2022/10/19 10:27:59;;;;;;;10.48;5.00;;;;;;;11.21;90.85;102580.25;5110185;28;20395;-58
2022/10/19 10:30:27;;;;;;;14.35;5.45;;;;;;;11.29;90.15;102572.50;5100289;28;20111;-60
2022/10/19 10:32:54;;;;;;;12.63;5.20;;;;;;;11.34;91.49;102569.47;5094838;28;20055;-61
2022/10/19 10:35:32;;;;;;;15.52;5.18;;;;;;;11.39;90.89;102559.31;5099619;28;20351;-58
2022/10/19 10:38:13;;;;;;;12.43;4.97;;;;;;;11.50;89.52;102560.28;5102696;28;20490;-59
2022/10/19 10:40:39;;;;;;;14.25;4.72;;;;;;;11.58;89.10;102557.81;5102573;27;20049;-57
2022/10/19 10:43:12;;;;;;;16.75;5.20;;;;;;;11.62;88.28;102555.75;5110107;28;20510;-57
2022/10/19 10:45:45;;;;;;;14.70;4.72;;;;;;;11.73;86.96;102553.06;5110318;28;20042;-58
2022/10/19 10:48:34;;;;;;;13.57;4.72;;;;;;;11.80;88.47;102545.44;5110604;28;20027;-57
2022/10/19 10:51:01;;;;;;;11.50;4.82;;;;;;;11.81;87.48;102557.75;5103641;27;20039;-58
2022/10/19 10:53:36;;;;;;;14.60;5.13;;;;;;;11.86;84.05;102554.69;5106213;28;20067;-58
2022/10/19 10:56:03;;;;;;;13.13;4.90;;;;;;;11.90;83.92;102546.31;5103058;28;20121;-59
2022/10/19 10:58:42;;;;;;;11.15;4.88;;;;;;;11.89;83.84;102547.31;5104526;28;20031;-58
2022/10/19 11:01:18;;;;;;;12.73;5.13;;;;;;;11.94;83.40;102526.50;5100125;28;20062;-59
2022/10/19 11:03:51;;;;;;;15.18;5.55;;;;;;;11.96;84.22;102539.66;5104292;28;20027;-58
2022/10/19 11:06:20;;;;;;;14.60;5.55;;;;;;;11.98;85.29;102535.91;5104587;28;20042;-58
2022/10/19 11:09:23;;;;;;;11.27;5.20;;;;;;;12.05;85.73;102533.59;5102281;28;20145;-58
2022/10/19 11:11:54;;;;;;;16.48;5.95;;;;;;;12.07;83.85;102520.19;5105221;28;20474;-58
2022/10/19 11:14:47;;;;;;;14.13;5.68;;;;;;;12.12;84.03;102523.28;5100070;28;20088;-57
2022/10/19 11:17:21;;;;;;;15.18;6.00;;;;;;;12.14;82.61;102518.69;5102413;28;20024;-59
2022/10/19 11:19:49;;;;;;;12.55;5.50;;;;;;;12.19;82.23;102524.44;5103073;28;20410;-58
2022/10/19 11:22:23;;;;;;;13.55;5.55;;;;;;;12.24;80.52;102511.59;5119194;27;20461;-58
2022/10/19 11:25:19;;;;;;;14.48;5.78;;;;;;;12.30;81.31;102504.06;5105537;28;20036;-58